sensor_id;sensor_type;location;lat;lon;timestamp;temperature;humidity
9399;DHT22;4739;49.334;8.792;2023-02-04T00:00:55;9.40;99.90
9399;DHT22;4739;49.334;8.792;2023-02-04T00:03:20;9.50;99.90
9399;DHT22;4739;49.334;8.792;2023-02-04T00:05:46;9.50;99.90
9399;DHT22;4739;49.334;8.792;2023-02-04T00:08:11;9.50;99.90
9399;DHT22;4739;49.334;8.792;2023-02-04T00:10:37;9.50;99.90
9399;DHT22;4739;49.334;8.792;2023-02-04T00:13:03;9.60;99.90
9399;DHT22;4739;49.334;8.792;2023-02-04T00:15:29;9.50;99.90
9399;DHT22;4739;49.334;8.792;2023-02-04T00:17:55;9.60;99.90
9399;DHT22;4739;49.334;8.792;2023-02-04T00:20:21;9.60;99.90
9399;DHT22;4739;49.334;8.792;2023-02-04T00:22:47;9.60;99.90
9399;DHT22;4739;49.334;8.792;2023-02-04T00:25:13;9.60;99.90
9399;DHT22;4739;49.334;8.792;2023-02-04T00:27:38;9.60;99.90
9399;DHT22;4739;49.334;8.792;2023-02-04T00:30:05;9.60;99.90
9399;DHT22;4739;49.334;8.792;2023-02-04T00:32:31;9.60;99.90
9399;DHT22;4739;49.334;8.792;2023-02-04T00:34:56;9.50;99.90
9399;DHT22;4739;49.334;8.792;2023-02-04T00:37:22;9.50;99.90
9399;DHT22;4739;49.334;8.792;2023-02-04T00:39:48;9.40;99.90
9399;DHT22;4739;49.334;8.792;2023-02-04T00:42:13;9.40;99.90
9399;DHT22;4739;49.334;8.792;2023-02-04T00:44:39;9.40;99.90
9399;DHT22;4739;49.334;8.792;2023-02-04T00:47:05;9.40;99.90
9399;DHT22;4739;49.334;8.792;2023-02-04T00:49:32;9.40;99.90
9399;DHT22;4739;49.334;8.792;2023-02-04T00:51:58;9.40;99.90
9399;DHT22;4739;49.334;8.792;2023-02-04T00:54:23;9.40;99.90
9399;DHT22;4739;49.334;8.792;2023-02-04T00:56:49;9.40;99.90
9399;DHT22;4739;49.334;8.792;2023-02-04T00:59:14;9.40;99.90
9399;DHT22;4739;49.334;8.792;2023-02-04T01:01:40;9.40;99.90
9399;DHT22;4739;49.334;8.792;2023-02-04T01:04:05;9.30;99.90
9399;DHT22;4739;49.334;8.792;2023-02-04T01:06:31;9.40;99.90
9399;DHT22;4739;49.334;8.792;2023-02-04T01:08:56;9.40;99.90
9399;DHT22;4739;49.334;8.792;2023-02-04T01:11:22;9.40;99.90
9399;DHT22;4739;49.334;8.792;2023-02-04T01:13:48;9.40;99.90
9399;DHT22;4739;49.334;8.792;2023-02-04T01:16:13;9.40;99.90
9399;DHT22;4739;49.334;8.792;2023-02-04T01:18:40;9.40;99.90
9399;DHT22;4739;49.334;8.792;2023-02-04T01:21:05;9.50;99.90
9399;DHT22;4739;49.334;8.792;2023-02-04T01:23:31;9.40;99.90
9399;DHT22;4739;49.334;8.792;2023-02-04T01:25:57;9.40;99.90
9399;DHT22;4739;49.334;8.792;2023-02-04T01:28:22;9.30;99.90
9399;DHT22;4739;49.334;8.792;2023-02-04T01:30:48;9.30;99.90
9399;DHT22;4739;49.334;8.792;2023-02-04T01:33:13;9.30;99.90
9399;DHT22;4739;49.334;8.792;2023-02-04T01:35:39;9.30;99.90
9399;DHT22;4739;49.334;8.792;2023-02-04T01:38:05;9.30;99.90
9399;DHT22;4739;49.334;8.792;2023-02-04T01:40:30;9.30;99.90
9399;DHT22;4739;49.334;8.792;2023-02-04T01:42:56;9.30;99.90
9399;DHT22;4739;49.334;8.792;2023-02-04T01:45:22;9.30;99.90
9399;DHT22;4739;49.334;8.792;2023-02-04T01:47:48;9.30;99.90
9399;DHT22;4739;49.334;8.792;2023-02-04T01:50:16;9.30;99.90
9399;DHT22;4739;49.334;8.792;2023-02-04T01:52:43;9.20;99.90
9399;DHT22;4739;49.334;8.792;2023-02-04T01:55:14;9.20;99.90
9399;DHT22;4739;49.334;8.792;2023-02-04T01:57:41;9.30;99.90
9399;DHT22;4739;49.334;8.792;2023-02-04T02:00:16;9.30;99.90
9399;DHT22;4739;49.334;8.792;2023-02-04T02:02:49;9.40;99.90
9399;DHT22;4739;49.334;8.792;2023-02-04T02:05:18;9.30;99.90
9399;DHT22;4739;49.334;8.792;2023-02-04T02:07:46;9.30;99.90
9399;DHT22;4739;49.334;8.792;2023-02-04T02:10:13;9.30;99.90
9399;DHT22;4739;49.334;8.792;2023-02-04T02:12:40;9.30;99.90
9399;DHT22;4739;49.334;8.792;2023-02-04T02:15:07;9.30;99.90
9399;DHT22;4739;49.334;8.792;2023-02-04T02:17:32;9.10;99.90
9399;DHT22;4739;49.334;8.792;2023-02-04T02:19:58;9.20;99.90
9399;DHT22;4739;49.334;8.792;2023-02-04T02:24:58;9.20;99.90
9399;DHT22;4739;49.334;8.792;2023-02-04T02:27:24;9.20;99.90
9399;DHT22;4739;49.334;8.792;2023-02-04T02:29:50;9.10;99.90
9399;DHT22;4739;49.334;8.792;2023-02-04T02:32:16;9.10;99.90
9399;DHT22;4739;49.334;8.792;2023-02-04T02:34:42;9.10;99.90
9399;DHT22;4739;49.334;8.792;2023-02-04T02:37:09;9.10;99.90
9399;DHT22;4739;49.334;8.792;2023-02-04T02:39:38;9.00;99.90
9399;DHT22;4739;49.334;8.792;2023-02-04T02:42:04;9.10;99.90
9399;DHT22;4739;49.334;8.792;2023-02-04T02:44:31;9.10;99.90
9399;DHT22;4739;49.334;8.792;2023-02-04T02:46:57;9.00;99.90
9399;DHT22;4739;49.334;8.792;2023-02-04T02:49:30;9.00;99.90
9399;DHT22;4739;49.334;8.792;2023-02-04T02:51:56;9.00;99.90
9399;DHT22;4739;49.334;8.792;2023-02-04T02:54:28;9.00;99.90
9399;DHT22;4739;49.334;8.792;2023-02-04T02:56:54;9.00;99.90
9399;DHT22;4739;49.334;8.792;2023-02-04T02:59:20;9.00;99.90
9399;DHT22;4739;49.334;8.792;2023-02-04T03:04:11;8.90;99.90
9399;DHT22;4739;49.334;8.792;2023-02-04T03:06:37;8.80;99.90
9399;DHT22;4739;49.334;8.792;2023-02-04T03:09:03;8.80;99.90
9399;DHT22;4739;49.334;8.792;2023-02-04T03:11:29;8.70;99.90
9399;DHT22;4739;49.334;8.792;2023-02-04T03:13:55;8.80;99.90
9399;DHT22;4739;49.334;8.792;2023-02-04T03:16:22;8.70;99.90
9399;DHT22;4739;49.334;8.792;2023-02-04T03:18:48;8.70;99.90
9399;DHT22;4739;49.334;8.792;2023-02-04T03:21:14;8.60;99.90
9399;DHT22;4739;49.334;8.792;2023-02-04T03:23:40;8.70;99.90
9399;DHT22;4739;49.334;8.792;2023-02-04T03:26:06;8.70;99.90
9399;DHT22;4739;49.334;8.792;2023-02-04T03:28:31;8.70;99.90
9399;DHT22;4739;49.334;8.792;2023-02-04T03:30:57;8.60;99.90
9399;DHT22;4739;49.334;8.792;2023-02-04T03:33:25;8.60;99.90
9399;DHT22;4739;49.334;8.792;2023-02-04T03:35:53;8.70;99.90
9399;DHT22;4739;49.334;8.792;2023-02-04T03:38:19;8.80;99.90
9399;DHT22;4739;49.334;8.792;2023-02-04T03:40:44;8.70;99.90
9399;DHT22;4739;49.334;8.792;2023-02-04T03:43:10;8.80;99.90
9399;DHT22;4739;49.334;8.792;2023-02-04T03:45:35;8.80;99.90
9399;DHT22;4739;49.334;8.792;2023-02-04T03:48:01;8.80;99.90
9399;DHT22;4739;49.334;8.792;2023-02-04T03:50:26;8.80;99.90
9399;DHT22;4739;49.334;8.792;2023-02-04T03:52:52;8.80;99.90
9399;DHT22;4739;49.334;8.792;2023-02-04T03:55:18;8.70;99.90
9399;DHT22;4739;49.334;8.792;2023-02-04T03:57:44;8.70;99.90
9399;DHT22;4739;49.334;8.792;2023-02-04T04:00:10;8.50;99.90
9399;DHT22;4739;49.334;8.792;2023-02-04T04:02:36;8.50;99.90
9399;DHT22;4739;49.334;8.792;2023-02-04T04:05:03;8.50;99.90
9399;DHT22;4739;49.334;8.792;2023-02-04T04:07:28;8.50;99.90
9399;DHT22;4739;49.334;8.792;2023-02-04T04:09:54;8.40;99.90
9399;DHT22;4739;49.334;8.792;2023-02-04T04:12:19;8.40;99.90
9399;DHT22;4739;49.334;8.792;2023-02-04T04:14:45;8.40;99.90
9399;DHT22;4739;49.334;8.792;2023-02-04T04:17:11;8.40;99.90
9399;DHT22;4739;49.334;8.792;2023-02-04T04:19:36;8.30;99.90
9399;DHT22;4739;49.334;8.792;2023-02-04T04:22:02;8.20;99.90
9399;DHT22;4739;49.334;8.792;2023-02-04T04:24:27;8.20;99.90
9399;DHT22;4739;49.334;8.792;2023-02-04T04:26:53;8.20;99.90
9399;DHT22;4739;49.334;8.792;2023-02-04T04:29:18;8.20;99.90
9399;DHT22;4739;49.334;8.792;2023-02-04T04:31:44;8.20;99.90
9399;DHT22;4739;49.334;8.792;2023-02-04T04:34:10;8.20;99.90
9399;DHT22;4739;49.334;8.792;2023-02-04T04:36:36;8.20;99.90
9399;DHT22;4739;49.334;8.792;2023-02-04T04:41:30;8.20;99.90
9399;DHT22;4739;49.334;8.792;2023-02-04T04:43:56;8.10;99.90
9399;DHT22;4739;49.334;8.792;2023-02-04T04:46:21;8.00;99.90
9399;DHT22;4739;49.334;8.792;2023-02-04T04:48:47;8.00;99.90
9399;DHT22;4739;49.334;8.792;2023-02-04T04:51:12;8.00;99.90
9399;DHT22;4739;49.334;8.792;2023-02-04T04:53:38;8.00;99.90
9399;DHT22;4739;49.334;8.792;2023-02-04T04:56:04;8.00;99.90
9399;DHT22;4739;49.334;8.792;2023-02-04T04:58:29;8.00;99.90
9399;DHT22;4739;49.334;8.792;2023-02-04T05:00:55;8.00;99.90
9399;DHT22;4739;49.334;8.792;2023-02-04T05:03:20;7.90;99.90
9399;DHT22;4739;49.334;8.792;2023-02-04T05:05:46;7.90;99.90
9399;DHT22;4739;49.334;8.792;2023-02-04T05:08:11;8.00;99.90
9399;DHT22;4739;49.334;8.792;2023-02-04T05:10:42;7.90;99.90
9399;DHT22;4739;49.334;8.792;2023-02-04T05:13:08;8.00;99.90
9399;DHT22;4739;49.334;8.792;2023-02-04T05:15:34;8.00;99.90
9399;DHT22;4739;49.334;8.792;2023-02-04T05:17:59;8.00;99.90
9399;DHT22;4739;49.334;8.792;2023-02-04T05:20:25;8.00;99.90
9399;DHT22;4739;49.334;8.792;2023-02-04T05:22:51;7.90;99.90
9399;DHT22;4739;49.334;8.792;2023-02-04T05:25:16;7.90;99.90
9399;DHT22;4739;49.334;8.792;2023-02-04T05:27:43;8.00;99.90
9399;DHT22;4739;49.334;8.792;2023-02-04T05:30:10;8.00;99.90
9399;DHT22;4739;49.334;8.792;2023-02-04T05:32:36;7.90;99.90
9399;DHT22;4739;49.334;8.792;2023-02-04T05:35:02;7.90;99.90
9399;DHT22;4739;49.334;8.792;2023-02-04T05:39:55;7.70;99.90
9399;DHT22;4739;49.334;8.792;2023-02-04T05:42:21;7.60;99.90
9399;DHT22;4739;49.334;8.792;2023-02-04T05:44:46;7.60;99.90
9399;DHT22;4739;49.334;8.792;2023-02-04T05:47:12;7.50;99.90
9399;DHT22;4739;49.334;8.792;2023-02-04T05:49:38;7.60;99.90
9399;DHT22;4739;49.334;8.792;2023-02-04T05:52:03;7.60;99.90
9399;DHT22;4739;49.334;8.792;2023-02-04T05:54:29;7.50;99.90
9399;DHT22;4739;49.334;8.792;2023-02-04T05:56:54;7.30;99.90
9399;DHT22;4739;49.334;8.792;2023-02-04T05:59:20;7.20;99.90
9399;DHT22;4739;49.334;8.792;2023-02-04T06:04:11;7.10;99.90
9399;DHT22;4739;49.334;8.792;2023-02-04T06:06:37;7.00;99.90
9399;DHT22;4739;49.334;8.792;2023-02-04T06:09:02;7.00;99.90
9399;DHT22;4739;49.334;8.792;2023-02-04T06:11:28;7.00;99.90
9399;DHT22;4739;49.334;8.792;2023-02-04T06:13:53;6.90;99.90
9399;DHT22;4739;49.334;8.792;2023-02-04T06:16:19;6.90;99.90
9399;DHT22;4739;49.334;8.792;2023-02-04T06:18:45;6.80;99.90
9399;DHT22;4739;49.334;8.792;2023-02-04T06:21:10;6.80;99.90
9399;DHT22;4739;49.334;8.792;2023-02-04T06:23:36;6.70;99.90
9399;DHT22;4739;49.334;8.792;2023-02-04T06:26:01;6.70;99.90
9399;DHT22;4739;49.334;8.792;2023-02-04T06:28:27;6.70;99.90
9399;DHT22;4739;49.334;8.792;2023-02-04T06:30:53;6.70;99.90
9399;DHT22;4739;49.334;8.792;2023-02-04T06:33:19;6.70;99.90
9399;DHT22;4739;49.334;8.792;2023-02-04T06:35:46;6.70;99.90
9399;DHT22;4739;49.334;8.792;2023-02-04T06:38:11;6.60;99.90
9399;DHT22;4739;49.334;8.792;2023-02-04T06:40:37;6.60;99.90
9399;DHT22;4739;49.334;8.792;2023-02-04T06:43:02;6.50;99.90
9399;DHT22;4739;49.334;8.792;2023-02-04T06:45:28;6.60;99.90
9399;DHT22;4739;49.334;8.792;2023-02-04T06:47:54;6.60;99.90
9399;DHT22;4739;49.334;8.792;2023-02-04T06:50:20;6.50;99.90
9399;DHT22;4739;49.334;8.792;2023-02-04T06:52:45;6.40;99.90
9399;DHT22;4739;49.334;8.792;2023-02-04T06:55:12;6.40;99.90
9399;DHT22;4739;49.334;8.792;2023-02-04T06:57:38;6.50;99.90
9399;DHT22;4739;49.334;8.792;2023-02-04T07:00:05;6.60;99.90
9399;DHT22;4739;49.334;8.792;2023-02-04T07:02:31;6.50;99.90
9399;DHT22;4739;49.334;8.792;2023-02-04T07:04:57;6.40;99.90
9399;DHT22;4739;49.334;8.792;2023-02-04T07:07:24;6.40;99.90
9399;DHT22;4739;49.334;8.792;2023-02-04T07:09:50;6.30;99.90
9399;DHT22;4739;49.334;8.792;2023-02-04T07:12:15;6.30;99.90
9399;DHT22;4739;49.334;8.792;2023-02-04T07:14:41;6.20;99.90
9399;DHT22;4739;49.334;8.792;2023-02-04T07:17:06;6.40;99.90
9399;DHT22;4739;49.334;8.792;2023-02-04T07:19:32;6.40;99.90
9399;DHT22;4739;49.334;8.792;2023-02-04T07:21:58;6.40;99.90
9399;DHT22;4739;49.334;8.792;2023-02-04T07:24:23;6.50;99.90
9399;DHT22;4739;49.334;8.792;2023-02-04T07:26:49;6.50;99.90
9399;DHT22;4739;49.334;8.792;2023-02-04T07:29:15;6.40;99.90
9399;DHT22;4739;49.334;8.792;2023-02-04T07:31:41;6.50;99.90
9399;DHT22;4739;49.334;8.792;2023-02-04T07:34:07;6.60;99.90
9399;DHT22;4739;49.334;8.792;2023-02-04T07:36:33;6.60;99.90
9399;DHT22;4739;49.334;8.792;2023-02-04T07:38:58;6.70;99.90
9399;DHT22;4739;49.334;8.792;2023-02-04T07:41:24;6.80;99.90
9399;DHT22;4739;49.334;8.792;2023-02-04T07:43:49;6.90;99.90
9399;DHT22;4739;49.334;8.792;2023-02-04T07:46:15;7.10;99.90
9399;DHT22;4739;49.334;8.792;2023-02-04T07:48:40;7.00;99.90
9399;DHT22;4739;49.334;8.792;2023-02-04T07:51:06;7.20;99.90
9399;DHT22;4739;49.334;8.792;2023-02-04T07:53:31;7.30;99.90
9399;DHT22;4739;49.334;8.792;2023-02-04T07:55:57;7.40;99.90
9399;DHT22;4739;49.334;8.792;2023-02-04T07:58:22;7.50;99.90
9399;DHT22;4739;49.334;8.792;2023-02-04T08:00:48;7.50;99.90
9399;DHT22;4739;49.334;8.792;2023-02-04T08:03:13;7.60;99.90
9399;DHT22;4739;49.334;8.792;2023-02-04T08:05:39;7.60;99.90
9399;DHT22;4739;49.334;8.792;2023-02-04T08:08:05;7.60;99.90
9399;DHT22;4739;49.334;8.792;2023-02-04T08:10:31;7.60;99.90
9399;DHT22;4739;49.334;8.792;2023-02-04T08:12:56;7.70;99.90
9399;DHT22;4739;49.334;8.792;2023-02-04T08:15:22;7.80;99.90
9399;DHT22;4739;49.334;8.792;2023-02-04T08:17:47;7.90;99.90
9399;DHT22;4739;49.334;8.792;2023-02-04T08:20:13;7.90;99.90
9399;DHT22;4739;49.334;8.792;2023-02-04T08:22:38;8.00;99.90
9399;DHT22;4739;49.334;8.792;2023-02-04T08:25:04;8.20;99.90
9399;DHT22;4739;49.334;8.792;2023-02-04T08:27:30;8.40;99.90
9399;DHT22;4739;49.334;8.792;2023-02-04T08:29:55;8.50;99.90
9399;DHT22;4739;49.334;8.792;2023-02-04T08:32:21;8.60;99.90
9399;DHT22;4739;49.334;8.792;2023-02-04T08:34:47;8.50;99.90
9399;DHT22;4739;49.334;8.792;2023-02-04T08:37:13;8.60;99.90
9399;DHT22;4739;49.334;8.792;2023-02-04T08:39:39;8.80;99.90
9399;DHT22;4739;49.334;8.792;2023-02-04T08:42:08;8.80;99.90
9399;DHT22;4739;49.334;8.792;2023-02-04T08:44:34;8.90;99.90
9399;DHT22;4739;49.334;8.792;2023-02-04T08:47:00;9.00;99.90
9399;DHT22;4739;49.334;8.792;2023-02-04T08:49:25;9.00;99.90
9399;DHT22;4739;49.334;8.792;2023-02-04T08:51:51;9.00;99.90
9399;DHT22;4739;49.334;8.792;2023-02-04T08:54:16;9.10;99.90
9399;DHT22;4739;49.334;8.792;2023-02-04T08:56:42;9.10;99.90
9399;DHT22;4739;49.334;8.792;2023-02-04T08:59:08;9.20;99.90
9399;DHT22;4739;49.334;8.792;2023-02-04T09:01:34;9.30;99.90
9399;DHT22;4739;49.334;8.792;2023-02-04T09:03:59;9.30;99.90
9399;DHT22;4739;49.334;8.792;2023-02-04T09:06:25;9.40;99.90
9399;DHT22;4739;49.334;8.792;2023-02-04T09:08:50;9.40;99.90
9399;DHT22;4739;49.334;8.792;2023-02-04T09:11:16;9.40;99.90
9399;DHT22;4739;49.334;8.792;2023-02-04T09:13:41;9.40;99.90
9399;DHT22;4739;49.334;8.792;2023-02-04T09:16:07;9.40;99.90
9399;DHT22;4739;49.334;8.792;2023-02-04T09:18:32;9.40;99.90
9399;DHT22;4739;49.334;8.792;2023-02-04T09:20:58;9.50;99.90
9399;DHT22;4739;49.334;8.792;2023-02-04T09:23:24;9.60;99.90
9399;DHT22;4739;49.334;8.792;2023-02-04T09:25:50;9.60;99.90
9399;DHT22;4739;49.334;8.792;2023-02-04T09:28:16;9.70;99.90
9399;DHT22;4739;49.334;8.792;2023-02-04T09:30:43;9.70;99.90
9399;DHT22;4739;49.334;8.792;2023-02-04T09:33:11;9.70;99.90
9399;DHT22;4739;49.334;8.792;2023-02-04T09:35:37;9.80;99.90
9399;DHT22;4739;49.334;8.792;2023-02-04T09:38:03;9.70;99.90
9399;DHT22;4739;49.334;8.792;2023-02-04T09:40:32;9.80;99.90
9399;DHT22;4739;49.334;8.792;2023-02-04T09:42:59;9.80;99.90
9399;DHT22;4739;49.334;8.792;2023-02-04T09:45:27;9.80;99.90
9399;DHT22;4739;49.334;8.792;2023-02-04T09:47:55;9.80;99.90
9399;DHT22;4739;49.334;8.792;2023-02-04T09:50:23;9.80;99.90
9399;DHT22;4739;49.334;8.792;2023-02-04T09:52:52;9.80;99.90
9399;DHT22;4739;49.334;8.792;2023-02-04T09:55:21;9.80;99.90
9399;DHT22;4739;49.334;8.792;2023-02-04T09:57:48;9.90;99.90
9399;DHT22;4739;49.334;8.792;2023-02-04T10:00:18;9.90;99.90
9399;DHT22;4739;49.334;8.792;2023-02-04T10:02:44;9.90;99.90
9399;DHT22;4739;49.334;8.792;2023-02-04T10:05:18;9.90;99.90
9399;DHT22;4739;49.334;8.792;2023-02-04T10:07:46;9.90;99.90
9399;DHT22;4739;49.334;8.792;2023-02-04T10:10:18;9.80;99.90
9399;DHT22;4739;49.334;8.792;2023-02-04T10:12:45;10.00;99.90
9399;DHT22;4739;49.334;8.792;2023-02-04T10:15:15;10.60;99.90
9399;DHT22;4739;49.334;8.792;2023-02-04T10:17:44;10.70;99.90
9399;DHT22;4739;49.334;8.792;2023-02-04T10:20:14;11.00;99.90
9399;DHT22;4739;49.334;8.792;2023-02-04T10:22:40;11.00;99.90
9399;DHT22;4739;49.334;8.792;2023-02-04T10:25:17;11.00;99.90
9399;DHT22;4739;49.334;8.792;2023-02-04T10:27:51;11.20;99.90
9399;DHT22;4739;49.334;8.792;2023-02-04T10:30:23;11.10;99.90
9399;DHT22;4739;49.334;8.792;2023-02-04T10:32:49;11.10;99.90
9399;DHT22;4739;49.334;8.792;2023-02-04T10:35:17;11.30;99.90
9399;DHT22;4739;49.334;8.792;2023-02-04T10:37:43;11.50;99.90
9399;DHT22;4739;49.334;8.792;2023-02-04T10:42:50;11.80;99.90
9399;DHT22;4739;49.334;8.792;2023-02-04T10:45:26;11.70;99.90
9399;DHT22;4739;49.334;8.792;2023-02-04T10:47:53;11.50;99.90
9399;DHT22;4739;49.334;8.792;2023-02-04T10:50:21;11.40;99.90
9399;DHT22;4739;49.334;8.792;2023-02-04T10:52:53;11.50;99.90
9399;DHT22;4739;49.334;8.792;2023-02-04T10:55:40;11.30;99.90
9399;DHT22;4739;49.334;8.792;2023-02-04T10:58:10;11.10;99.90
9399;DHT22;4739;49.334;8.792;2023-02-04T11:00:36;11.00;99.90
9399;DHT22;4739;49.334;8.792;2023-02-04T11:03:18;10.80;99.90
9399;DHT22;4739;49.334;8.792;2023-02-04T11:05:46;10.70;99.90
9399;DHT22;4739;49.334;8.792;2023-02-04T11:08:25;10.60;99.90
9399;DHT22;4739;49.334;8.792;2023-02-04T11:23:50;10.50;99.90
9399;DHT22;4739;49.334;8.792;2023-02-04T11:26:18;10.40;99.90
9399;DHT22;4739;49.334;8.792;2023-02-04T11:34:01;10.70;99.90
9399;DHT22;4739;49.334;8.792;2023-02-04T11:36:27;10.80;99.90
9399;DHT22;4739;49.334;8.792;2023-02-04T11:38:53;10.80;99.90
9399;DHT22;4739;49.334;8.792;2023-02-04T11:41:24;10.90;99.90
9399;DHT22;4739;49.334;8.792;2023-02-04T11:43:52;10.90;99.90
9399;DHT22;4739;49.334;8.792;2023-02-04T11:46:19;10.70;99.90
9399;DHT22;4739;49.334;8.792;2023-02-04T11:48:45;10.80;99.90
9399;DHT22;4739;49.334;8.792;2023-02-04T11:51:15;11.00;99.90
9399;DHT22;4739;49.334;8.792;2023-02-04T11:53:42;11.00;99.90
9399;DHT22;4739;49.334;8.792;2023-02-04T11:56:19;11.00;99.90
9399;DHT22;4739;49.334;8.792;2023-02-04T11:58:45;11.00;99.90
9399;DHT22;4739;49.334;8.792;2023-02-04T12:01:20;10.70;99.90
9399;DHT22;4739;49.334;8.792;2023-02-04T12:03:55;10.60;99.90
9399;DHT22;4739;49.334;8.792;2023-02-04T12:06:23;10.60;99.90
9399;DHT22;4739;49.334;8.792;2023-02-04T12:08:50;10.40;99.90
9399;DHT22;4739;49.334;8.792;2023-02-04T12:11:26;10.50;99.90
9399;DHT22;4739;49.334;8.792;2023-02-04T12:13:56;10.80;99.90
9399;DHT22;4739;49.334;8.792;2023-02-04T12:16:22;11.20;99.90
9399;DHT22;4739;49.334;8.792;2023-02-04T12:18:48;11.20;99.90
9399;DHT22;4739;49.334;8.792;2023-02-04T12:21:14;11.10;99.90
9399;DHT22;4739;49.334;8.792;2023-02-04T12:23:40;10.90;99.90
9399;DHT22;4739;49.334;8.792;2023-02-04T12:26:09;10.50;99.90
9399;DHT22;4739;49.334;8.792;2023-02-04T12:28:35;10.40;99.90
9399;DHT22;4739;49.334;8.792;2023-02-04T12:31:00;10.30;99.90
9399;DHT22;4739;49.334;8.792;2023-02-04T12:33:26;10.20;99.90
9399;DHT22;4739;49.334;8.792;2023-02-04T12:35:52;10.10;99.90
9399;DHT22;4739;49.334;8.792;2023-02-04T12:38:18;10.10;99.90
9399;DHT22;4739;49.334;8.792;2023-02-04T12:40:44;10.30;99.90
9399;DHT22;4739;49.334;8.792;2023-02-04T12:43:09;10.30;99.90
9399;DHT22;4739;49.334;8.792;2023-02-04T12:45:35;10.40;99.90
9399;DHT22;4739;49.334;8.792;2023-02-04T12:48:02;10.50;99.90
9399;DHT22;4739;49.334;8.792;2023-02-04T12:50:27;10.50;99.90
9399;DHT22;4739;49.334;8.792;2023-02-04T12:52:56;10.40;99.90
9399;DHT22;4739;49.334;8.792;2023-02-04T12:55:23;10.40;99.90
9399;DHT22;4739;49.334;8.792;2023-02-04T12:57:49;10.40;99.90
9399;DHT22;4739;49.334;8.792;2023-02-04T13:00:16;10.50;99.90
9399;DHT22;4739;49.334;8.792;2023-02-04T13:02:42;10.70;99.90
9399;DHT22;4739;49.334;8.792;2023-02-04T13:05:09;11.00;99.90
9399;DHT22;4739;49.334;8.792;2023-02-04T13:07:35;11.00;99.90
9399;DHT22;4739;49.334;8.792;2023-02-04T13:10:01;11.40;99.90
9399;DHT22;4739;49.334;8.792;2023-02-04T13:12:26;11.20;99.90
9399;DHT22;4739;49.334;8.792;2023-02-04T13:14:52;11.40;99.90
9399;DHT22;4739;49.334;8.792;2023-02-04T13:17:18;11.30;99.90
9399;DHT22;4739;49.334;8.792;2023-02-04T13:19:43;11.40;99.90
9399;DHT22;4739;49.334;8.792;2023-02-04T13:22:09;11.50;99.90
9399;DHT22;4739;49.334;8.792;2023-02-04T13:24:34;11.30;99.90
9399;DHT22;4739;49.334;8.792;2023-02-04T13:27:00;11.30;99.90
9399;DHT22;4739;49.334;8.792;2023-02-04T13:29:25;10.80;99.90
9399;DHT22;4739;49.334;8.792;2023-02-04T13:31:51;10.90;99.90
9399;DHT22;4739;49.334;8.792;2023-02-04T13:34:17;11.00;99.90
9399;DHT22;4739;49.334;8.792;2023-02-04T13:36:43;11.00;99.90
9399;DHT22;4739;49.334;8.792;2023-02-04T13:39:09;10.90;99.90
9399;DHT22;4739;49.334;8.792;2023-02-04T13:41:35;10.80;99.90
9399;DHT22;4739;49.334;8.792;2023-02-04T13:44:02;10.80;99.90
9399;DHT22;4739;49.334;8.792;2023-02-04T13:46:27;10.70;99.90
9399;DHT22;4739;49.334;8.792;2023-02-04T13:48:53;10.70;99.90
9399;DHT22;4739;49.334;8.792;2023-02-04T13:51:19;10.90;99.90
9399;DHT22;4739;49.334;8.792;2023-02-04T13:53:44;10.70;99.90
9399;DHT22;4739;49.334;8.792;2023-02-04T13:56:10;10.60;99.90
9399;DHT22;4739;49.334;8.792;2023-02-04T13:58:35;10.70;99.90
9399;DHT22;4739;49.334;8.792;2023-02-04T14:01:01;10.80;99.90
9399;DHT22;4739;49.334;8.792;2023-02-04T14:03:28;10.90;99.90
9399;DHT22;4739;49.334;8.792;2023-02-04T14:05:54;11.00;99.90
9399;DHT22;4739;49.334;8.792;2023-02-04T14:08:21;11.00;99.90
9399;DHT22;4739;49.334;8.792;2023-02-04T14:10:47;11.10;99.90
9399;DHT22;4739;49.334;8.792;2023-02-04T14:13:12;11.00;99.90
9399;DHT22;4739;49.334;8.792;2023-02-04T14:15:38;10.90;99.90
9399;DHT22;4739;49.334;8.792;2023-02-04T14:18:08;11.10;99.90
9399;DHT22;4739;49.334;8.792;2023-02-04T14:20:34;10.80;99.90
9399;DHT22;4739;49.334;8.792;2023-02-04T14:23:00;10.80;99.90
9399;DHT22;4739;49.334;8.792;2023-02-04T14:25:26;10.80;99.90
9399;DHT22;4739;49.334;8.792;2023-02-04T14:27:52;10.80;99.90
9399;DHT22;4739;49.334;8.792;2023-02-04T14:30:23;10.80;99.90
9399;DHT22;4739;49.334;8.792;2023-02-04T14:32:49;10.80;99.90
9399;DHT22;4739;49.334;8.792;2023-02-04T14:35:15;10.80;99.90
9399;DHT22;4739;49.334;8.792;2023-02-04T14:37:41;10.80;99.90
9399;DHT22;4739;49.334;8.792;2023-02-04T14:40:08;10.80;99.90
9399;DHT22;4739;49.334;8.792;2023-02-04T14:42:34;10.80;99.90
9399;DHT22;4739;49.334;8.792;2023-02-04T14:45:01;10.60;99.90
9399;DHT22;4739;49.334;8.792;2023-02-04T14:47:31;10.60;99.90
9399;DHT22;4739;49.334;8.792;2023-02-04T14:49:56;10.70;99.90
9399;DHT22;4739;49.334;8.792;2023-02-04T14:52:22;10.60;99.90
9399;DHT22;4739;49.334;8.792;2023-02-04T14:54:47;10.60;99.90
9399;DHT22;4739;49.334;8.792;2023-02-04T14:57:13;10.50;99.90
9399;DHT22;4739;49.334;8.792;2023-02-04T14:59:39;10.30;99.90
9399;DHT22;4739;49.334;8.792;2023-02-04T15:02:04;10.00;99.90
9399;DHT22;4739;49.334;8.792;2023-02-04T15:04:30;10.10;99.90
9399;DHT22;4739;49.334;8.792;2023-02-04T15:06:56;10.10;99.90
9399;DHT22;4739;49.334;8.792;2023-02-04T15:09:23;10.00;99.90
9399;DHT22;4739;49.334;8.792;2023-02-04T15:11:49;9.80;99.90
9399;DHT22;4739;49.334;8.792;2023-02-04T15:14:15;9.80;99.90
9399;DHT22;4739;49.334;8.792;2023-02-04T15:16:41;9.80;99.90
9399;DHT22;4739;49.334;8.792;2023-02-04T15:19:08;9.70;99.90
9399;DHT22;4739;49.334;8.792;2023-02-04T15:21:33;9.60;99.90
9399;DHT22;4739;49.334;8.792;2023-02-04T15:23:59;9.70;99.90
9399;DHT22;4739;49.334;8.792;2023-02-04T15:26:25;9.60;99.90
9399;DHT22;4739;49.334;8.792;2023-02-04T15:28:50;9.60;99.90
9399;DHT22;4739;49.334;8.792;2023-02-04T15:31:16;9.60;99.90
9399;DHT22;4739;49.334;8.792;2023-02-04T15:33:41;9.60;99.90
9399;DHT22;4739;49.334;8.792;2023-02-04T15:36:07;9.60;99.90
9399;DHT22;4739;49.334;8.792;2023-02-04T15:38:32;9.50;99.90
9399;DHT22;4739;49.334;8.792;2023-02-04T15:40:58;9.40;99.90
9399;DHT22;4739;49.334;8.792;2023-02-04T15:43:24;9.30;99.90
9399;DHT22;4739;49.334;8.792;2023-02-04T15:45:49;9.30;99.90
9399;DHT22;4739;49.334;8.792;2023-02-04T15:48:15;9.30;99.90
9399;DHT22;4739;49.334;8.792;2023-02-04T15:50:41;9.10;99.90
9399;DHT22;4739;49.334;8.792;2023-02-04T15:53:07;9.10;99.90
9399;DHT22;4739;49.334;8.792;2023-02-04T15:55:33;9.00;99.90
9399;DHT22;4739;49.334;8.792;2023-02-04T15:57:58;8.90;99.90
9399;DHT22;4739;49.334;8.792;2023-02-04T16:00:24;8.80;99.90
9399;DHT22;4739;49.334;8.792;2023-02-04T16:02:50;8.70;99.90
9399;DHT22;4739;49.334;8.792;2023-02-04T16:05:15;8.70;99.90
9399;DHT22;4739;49.334;8.792;2023-02-04T16:07:41;8.70;99.90
9399;DHT22;4739;49.334;8.792;2023-02-04T16:10:07;8.60;99.90
9399;DHT22;4739;49.334;8.792;2023-02-04T16:12:32;8.50;99.90
9399;DHT22;4739;49.334;8.792;2023-02-04T16:14:58;8.40;99.90
9399;DHT22;4739;49.334;8.792;2023-02-04T16:17:23;8.40;99.90
9399;DHT22;4739;49.334;8.792;2023-02-04T16:19:49;8.20;99.90
9399;DHT22;4739;49.334;8.792;2023-02-04T16:22:15;8.20;99.90
9399;DHT22;4739;49.334;8.792;2023-02-04T16:24:40;8.10;99.90
9399;DHT22;4739;49.334;8.792;2023-02-04T16:27:06;7.90;99.90
9399;DHT22;4739;49.334;8.792;2023-02-04T16:29:32;7.80;99.90
9399;DHT22;4739;49.334;8.792;2023-02-04T16:31:57;7.80;99.90
9399;DHT22;4739;49.334;8.792;2023-02-04T16:34:23;7.70;99.90
9399;DHT22;4739;49.334;8.792;2023-02-04T16:36:49;7.60;99.90
9399;DHT22;4739;49.334;8.792;2023-02-04T16:39:15;7.50;99.90